Strona główna
METAR-TAF:

METAR-TAF

Lotnisko :

Port lotniczy Miri

Miri, Malezja

Szerokość geograficzna: 04-20N, Długość geograficzna: 113-59E, wysokość: 17 m

Aktualna obserwacja pogody

Raport powstał 55 minut temu, godzina 22:00 UTC
Wiatr 7 kt od północny wschód, zmienny między północ i wschodnio-północny wschód
Temperatura 26°C
Wilgotność 89%
Ciśnienie 1011 hPa
Widzialność: 8000 m
Rozproszone chmury na wysokości 1600 ft
Rozproszone chmury na wysokości 15000 ft
Przerywane chmury na wysokości 30000 ft

METAR: WBGR 232200Z 04007KT 360V070 8000 SCT016 SCT150 BKN300 26/24 Q1011

czas: 06:55 (22:55 UTC)

Prognoza

Raport powstał 5 godziny i 55 minut temu, godzina 17:00 UTC
Prognoza ważna od 23 godzina 18 UTC do 24 godzina 18 UTC
Wiatr 5 kt od wschód
Widzialność: 6000 m
Mało chmury na wysokości 1600 ft

TAF: WBGR 231700Z 2318/2418 09005KT 6000 FEW016

Obserwacja i prognoza pogody dla ponad 4000 lotnisk (raport METAR i TAF).

Dostępne stacje oznaczono żółtymi i czerwonymi punktami na mapie.

Najedź kursorem aby zobaczyć nazwę stacji.

Kliknij aby zobaczyć obserwacje i prognozy pogody.

Aby zmienić mapę: kliknij na zielony przycisk z czarnym krzyżykiem, aby powiększyć; na zielony przycisk z myślnikiem, aby pomniejszyć; na zielone strzałki, aby przejść do map sąsiednich.


METAR-TAF: